createdAt,value
2019-04-07T12:59:23.870Z,17.85
2019-04-07T13:00:59.911Z,18.80
2019-04-07T13:02:20.029Z,17.70
2019-04-07T13:03:59.047Z,16.90
2019-04-07T13:05:22.937Z,19.90
2019-04-07T13:06:45.775Z,16.95
2019-04-07T13:07:58.856Z,17.98
2019-04-07T13:09:32.353Z,17.20
2019-04-07T13:10:47.968Z,17.07
2019-04-07T13:12:09.801Z,17.07
2019-04-07T13:13:36.350Z,15.80
2019-04-07T13:15:01.164Z,15.48
2019-04-07T13:16:36.996Z,17.02
2019-04-07T13:18:04.252Z,15.75
2019-04-07T13:19:28.573Z,15.05
2019-04-07T13:20:50.279Z,21.75
2019-04-07T13:22:16.276Z,16.00
2019-04-07T13:23:38.468Z,16.77
2019-04-07T13:24:52.914Z,14.80
2019-04-07T13:26:12.125Z,15.68
2019-04-07T13:27:37.210Z,15.40
2019-04-07T13:29:09.575Z,14.45
2019-04-07T13:30:33.009Z,14.43
2019-04-07T13:31:47.071Z,15.05
2019-04-07T13:33:05.362Z,16.23
2019-04-07T13:34:23.448Z,14.07
2019-04-07T13:36:01.748Z,15.18
2019-04-07T13:37:13.479Z,19.20
2019-04-07T13:38:37.097Z,16.10
2019-04-07T13:39:59.949Z,14.78
2019-04-07T13:41:17.757Z,15.35
2019-04-07T13:42:59.081Z,15.38
2019-04-07T13:44:16.159Z,19.23
2019-04-07T13:45:46.794Z,15.00
2019-04-07T13:47:01.846Z,14.73
2019-04-07T13:48:41.113Z,13.88
2019-04-07T13:50:02.391Z,13.85
2019-04-07T13:51:45.857Z,12.98
2019-04-07T13:53:07.717Z,13.15
2019-04-07T13:54:32.477Z,13.43
2019-04-07T13:56:01.699Z,12.75
2019-04-07T13:57:22.260Z,12.73
2019-04-07T13:58:35.655Z,14.23
2019-04-07T13:59:49.479Z,13.03
2019-04-07T14:01:03.559Z,13.45
2019-04-07T14:02:29.934Z,13.43
2019-04-07T14:03:58.016Z,14.53
2019-04-07T14:05:24.919Z,20.90
2019-04-07T14:06:44.546Z,14.00
2019-04-07T14:08:27.142Z,15.05
2019-04-07T14:09:47.735Z,14.23
2019-04-07T14:11:11.015Z,13.83
2019-04-07T14:12:46.179Z,15.38
2019-04-07T14:14:04.581Z,13.68
2019-04-07T14:15:23.812Z,13.75
2019-04-07T14:16:43.463Z,14.30
2019-04-07T14:18:21.601Z,14.00
2019-04-07T14:19:56.510Z,14.53
2019-04-07T14:21:16.826Z,14.65
2019-04-07T14:22:46.529Z,13.70
2019-04-07T14:24:08.955Z,14.30
2019-04-07T14:25:35.651Z,14.13
2019-04-07T14:28:31.620Z,14.30
2019-04-07T14:29:54.845Z,14.15
2019-04-07T14:31:14.119Z,14.73
2019-04-07T14:32:28.418Z,14.25
2019-04-07T14:33:54.553Z,15.75
2019-04-07T14:35:17.335Z,13.95
2019-04-07T14:36:36.258Z,13.35
2019-04-07T14:38:02.583Z,13.35
2019-04-07T14:39:29.398Z,13.05
2019-04-07T14:41:01.091Z,13.32
2019-04-07T14:42:36.813Z,14.60
2019-04-07T14:44:09.550Z,14.40
2019-04-07T14:45:47.572Z,14.38
2019-04-07T14:47:04.708Z,13.58
2019-04-07T14:48:34.636Z,13.22
2019-04-07T14:50:01.869Z,14.20
2019-04-07T14:51:31.774Z,15.55
2019-04-07T14:52:43.236Z,15.58
2019-04-07T14:54:16.364Z,14.50
2019-04-07T14:55:52.192Z,13.60
2019-04-07T14:57:17.008Z,13.62
2019-04-07T14:58:48.436Z,12.93
2019-04-07T15:00:11.691Z,14.07
2019-04-07T15:01:53.616Z,13.38
2019-04-07T15:02:58.037Z,15.88
2019-04-07T15:04:02.360Z,13.20
2019-04-07T15:05:26.100Z,13.03
2019-04-07T15:06:33.311Z,12.30
2019-04-07T15:07:45.186Z,15.40
2019-04-07T15:09:01.849Z,12.85
2019-04-07T15:10:23.189Z,13.78
2019-04-07T15:11:46.725Z,13.65
2019-04-07T15:12:55.608Z,12.73
2019-04-07T15:14:01.357Z,15.03
2019-04-07T15:15:09.178Z,13.00
2019-04-07T15:16:12.787Z,12.15
2019-04-07T15:17:17.676Z,12.05
2019-04-07T15:18:22.905Z,11.68
2019-04-07T15:19:27.731Z,11.38
2019-04-07T15:20:32.308Z,12.85
2019-04-07T15:21:37.343Z,12.33
2019-04-07T15:22:44.714Z,11.55
2019-04-07T15:23:48.221Z,13.43
2019-04-07T15:24:52.557Z,12.90
2019-04-07T15:25:56.853Z,12.30
2019-04-07T15:27:01.201Z,11.83
2019-04-07T15:28:05.459Z,11.88
2019-04-07T15:29:10.847Z,10.95
2019-04-07T15:30:16.737Z,12.70
2019-04-07T15:31:21.679Z,11.18
2019-04-07T15:32:28.623Z,10.80
2019-04-07T15:33:33.983Z,10.95
2019-04-07T15:34:40.656Z,11.95
2019-04-07T15:35:47.861Z,10.85
2019-04-07T15:36:51.003Z,13.55
2019-04-07T15:37:55.397Z,13.15
2019-04-07T15:38:59.634Z,13.75
2019-04-07T15:40:06.029Z,12.98
2019-04-07T15:41:15.325Z,13.32
2019-04-07T15:42:31.437Z,14.58
2019-04-07T15:43:22.399Z,12.60
2019-04-07T15:44:27.231Z,11.93
2019-04-07T15:45:31.435Z,10.95
2019-04-07T15:46:36.573Z,13.15
2019-04-07T15:47:40.975Z,13.58
2019-04-07T15:48:45.390Z,11.48
2019-04-07T15:49:51.237Z,11.85
2019-04-07T15:50:56.210Z,11.30
2019-04-07T15:52:01.239Z,11.38
2019-04-07T15:53:06.067Z,12.70
2019-04-07T15:54:09.876Z,10.70
2019-04-07T15:55:14.943Z,11.12
2019-04-07T15:56:19.639Z,11.53
2019-04-07T15:57:24.062Z,16.48
2019-04-07T15:58:28.758Z,13.28
2019-04-07T15:59:34.173Z,16.30
2019-04-07T16:00:38.730Z,11.97
2019-04-07T16:01:43.022Z,11.25
2019-04-07T16:02:49.295Z,12.63
2019-04-07T16:03:54.416Z,11.80
2019-04-07T16:05:00.435Z,12.25
2019-04-07T16:06:03.498Z,12.55
2019-04-07T16:07:08.111Z,12.28
2019-04-07T16:08:13.552Z,12.53
2019-04-07T16:09:29.707Z,13.25
2019-04-07T16:10:23.818Z,11.05
2019-04-07T16:11:30.288Z,11.83
2019-04-07T16:12:42.875Z,12.58
2019-04-07T16:13:39.098Z,11.18
2019-04-07T16:14:45.892Z,11.53
2019-04-07T16:15:50.978Z,11.73
2019-04-07T16:16:54.783Z,12.82
2019-04-07T16:17:58.812Z,11.78
2019-04-07T16:19:02.664Z,12.00
2019-04-07T16:20:19.933Z,11.43
2019-04-07T16:21:14.332Z,10.35
2019-04-07T16:22:18.813Z,10.88
2019-04-07T16:23:23.208Z,10.90
2019-04-07T16:24:27.620Z,10.60
2019-04-07T16:25:32.252Z,9.93
2019-04-07T16:26:37.377Z,14.65
2019-04-07T16:27:42.355Z,11.22
2019-04-07T16:28:46.892Z,11.55
2019-04-07T16:29:51.580Z,12.47
2019-04-07T16:30:56.270Z,17.02
2019-04-07T16:32:00.621Z,12.25
2019-04-07T16:33:05.624Z,12.78
2019-04-07T16:34:10.650Z,13.62
2019-04-07T16:35:16.573Z,10.55
2019-04-07T16:36:24.581Z,11.00
2019-04-07T16:37:29.107Z,12.10
2019-04-07T16:38:33.068Z,13.05
2019-04-07T16:39:37.551Z,14.35
2019-04-07T16:40:48.003Z,10.43
2019-04-07T16:41:52.264Z,11.18
2019-04-07T16:43:08.119Z,10.30
2019-04-07T16:44:07.216Z,14.70
2019-04-07T16:45:13.853Z,12.37
2019-04-07T16:46:20.514Z,11.38
2019-04-07T16:47:25.886Z,11.05
2019-04-07T16:48:28.900Z,11.15
2019-04-07T16:49:33.135Z,10.95
2019-04-07T16:50:38.131Z,12.50
2019-04-07T16:51:42.742Z,12.13
2019-04-07T16:52:48.593Z,11.10
2019-04-07T16:53:54.265Z,11.57
2019-04-07T16:54:59.632Z,11.20
2019-04-07T16:56:04.144Z,12.85
2019-04-07T16:57:09.371Z,10.82
2019-04-07T16:58:14.477Z,11.85
2019-04-07T16:59:20.763Z,13.35
2019-04-07T17:00:25.903Z,11.48
2019-04-07T17:01:30.303Z,12.70
2019-04-07T17:02:34.894Z,12.35
2019-04-07T17:03:39.811Z,11.45
2019-04-07T17:04:45.120Z,11.73
2019-04-07T17:05:50.357Z,11.78
2019-04-07T17:07:02.335Z,13.83
2019-04-07T17:08:01.654Z,12.25
2019-04-07T17:09:11.066Z,11.93
2019-04-07T17:10:16.752Z,10.63
2019-04-07T17:11:21.101Z,10.63
2019-04-07T17:12:25.873Z,11.10
2019-04-07T17:13:38.139Z,12.85
2019-04-07T17:14:36.333Z,10.03
2019-04-07T17:15:41.829Z,11.48
2019-04-07T17:16:47.230Z,11.08
2019-04-07T17:17:53.283Z,10.72
2019-04-07T17:18:57.540Z,11.50
2019-04-07T17:20:01.744Z,13.98
2019-04-07T17:21:11.439Z,12.18
2019-04-07T17:22:16.725Z,11.90
2019-04-07T17:23:23.159Z,10.82
2019-04-07T17:24:30.305Z,10.55
2019-04-07T17:25:34.617Z,12.23
2019-04-07T17:26:39.601Z,9.80
2019-04-07T17:27:43.791Z,13.75
2019-04-07T17:28:49.513Z,12.20
2019-04-07T17:29:55.090Z,11.03
2019-04-07T17:31:02.238Z,12.23
2019-04-07T17:32:08.027Z,12.68
2019-04-07T17:33:13.812Z,17.57
2019-04-07T17:34:20.506Z,13.45
2019-04-07T17:35:24.412Z,12.78
2019-04-07T17:36:29.299Z,12.65
2019-04-07T17:37:33.671Z,11.78
2019-04-07T17:39:03.983Z,12.63
2019-04-07T17:40:14.135Z,14.30
2019-04-07T17:41:18.440Z,12.20
2019-04-07T17:42:26.155Z,15.90
2019-04-07T17:43:48.970Z,13.72
2019-04-07T17:45:07.418Z,12.90
2019-04-07T17:46:40.685Z,12.37
2019-04-07T17:48:06.227Z,14.63
2019-04-07T17:49:26.568Z,10.80
2019-04-07T17:50:49.826Z,11.78
2019-04-07T17:52:20.850Z,11.80
2019-04-07T17:53:45.497Z,15.50
2019-04-07T17:54:57.782Z,12.58
2019-04-07T17:56:22.636Z,10.60
2019-04-07T17:57:42.878Z,11.38
2019-04-07T17:59:13.100Z,10.95
2019-04-07T18:00:50.663Z,12.85
2019-04-07T18:02:28.992Z,10.65
2019-04-07T18:03:49.731Z,11.38
2019-04-07T18:05:12.609Z,11.28
2019-04-07T18:06:47.885Z,12.25
2019-04-07T18:08:01.718Z,13.18
2019-04-07T18:09:33.056Z,11.43
2019-04-07T18:10:57.866Z,12.78
2019-04-07T18:12:39.027Z,11.35
2019-04-07T18:14:02.059Z,12.18
2019-04-07T18:15:32.095Z,11.95
2019-04-07T18:16:48.784Z,11.60
2019-04-07T18:18:06.981Z,12.93
2019-04-07T18:19:34.764Z,12.65
2019-04-07T18:20:56.134Z,13.65
2019-04-07T18:22:22.030Z,12.78
2019-04-07T18:23:44.364Z,13.48
2019-04-07T18:25:14.170Z,11.50
2019-04-07T18:26:31.813Z,13.62
2019-04-07T18:27:55.465Z,12.80
2019-04-07T18:29:18.758Z,11.30
2019-04-07T18:30:34.742Z,11.25
2019-04-07T18:31:45.471Z,15.15
2019-04-07T18:33:04.285Z,11.38
2019-04-07T18:34:27.447Z,12.13
2019-04-07T18:35:54.805Z,14.05
2019-04-07T18:37:09.670Z,10.78
2019-04-07T18:38:46.378Z,11.35
2019-04-07T18:40:13.275Z,11.28
2019-04-07T18:41:42.411Z,11.35
2019-04-07T18:43:06.322Z,11.85
2019-04-07T18:44:30.553Z,11.05
2019-04-07T18:45:57.824Z,10.15
2019-04-07T18:47:26.158Z,14.05
2019-04-07T18:48:49.033Z,13.15
2019-04-07T18:50:18.685Z,13.55
2019-04-07T18:51:47.082Z,12.20
2019-04-07T18:53:10.422Z,12.98
2019-04-07T18:54:33.666Z,10.95
2019-04-07T18:56:15.266Z,13.95
2019-04-07T18:57:43.891Z,10.72
2019-04-07T18:59:09.649Z,11.25
2019-04-07T19:00:32.561Z,11.10
2019-04-07T19:01:54.638Z,10.35
2019-04-07T19:03:20.316Z,11.05
2019-04-07T19:04:39.904Z,9.38
2019-04-07T19:06:12.757Z,10.05
2019-04-07T19:07:48.368Z,9.35
2019-04-07T19:09:11.161Z,11.88
2019-04-07T19:10:37.752Z,9.10
2019-04-07T19:12:22.710Z,10.28
2019-04-07T19:13:43.121Z,10.65
2019-04-07T19:15:03.096Z,9.73
2019-04-07T19:16:36.348Z,12.63
2019-04-07T19:18:09.790Z,11.30
2019-04-07T19:19:32.311Z,10.88
2019-04-07T19:20:55.722Z,10.45
2019-04-07T19:22:18.894Z,9.70
2019-04-07T19:23:41.498Z,11.33
2019-04-07T19:25:15.443Z,11.90
2019-04-07T19:26:37.944Z,10.40
2019-04-07T19:27:50.848Z,9.10
2019-04-07T19:29:23.016Z,9.73
2019-04-07T19:30:55.257Z,9.53
2019-04-07T19:32:20.783Z,11.68
2019-04-07T19:33:42.178Z,10.60
2019-04-07T19:34:56.024Z,10.68
2019-04-07T19:36:19.878Z,11.25
2019-04-07T19:37:32.498Z,9.85
2019-04-07T19:39:02.729Z,9.55
2019-04-07T19:40:26.938Z,11.22
2019-04-07T19:41:42.810Z,12.33
2019-04-07T19:43:14.961Z,9.33
2019-04-07T19:44:41.267Z,11.38
2019-04-07T19:45:55.273Z,10.90
2019-04-07T19:47:20.933Z,10.38
2019-04-07T19:48:53.155Z,9.28
2019-04-07T19:50:34.982Z,9.28
2019-04-07T19:52:02.289Z,10.93
2019-04-07T19:53:22.390Z,11.00
2019-04-07T19:54:52.847Z,11.08
2019-04-07T19:56:23.294Z,15.88
2019-04-07T19:57:40.602Z,12.82
2019-04-07T19:59:08.958Z,10.88
2019-04-07T20:00:35.351Z,10.13
2019-04-07T20:02:02.263Z,10.40
2019-04-07T20:03:26.367Z,10.93
2019-04-07T20:08:32.332Z,10.15
2019-04-07T20:09:46.841Z,9.55
2019-04-07T20:11:07.909Z,9.63
2019-04-07T20:12:41.289Z,9.95
2019-04-07T20:13:58.830Z,9.35
2019-04-07T20:15:22.013Z,10.93
2019-04-07T20:16:47.510Z,11.75
2019-04-07T20:18:14.616Z,9.48
2019-04-07T20:19:28.796Z,9.68
2019-04-07T20:20:43.532Z,10.70
2019-04-07T20:22:13.356Z,9.65
2019-04-07T20:23:31.860Z,9.80
2019-04-07T20:24:53.916Z,9.45
2019-04-07T20:26:24.078Z,9.28
2019-04-07T20:27:42.725Z,9.33
2019-04-07T20:29:10.389Z,9.15
2019-04-07T20:30:48.581Z,9.83
2019-04-07T20:32:13.442Z,10.13
2019-04-07T20:33:29.766Z,9.93
2019-04-07T20:34:41.724Z,10.30
2019-04-07T20:36:08.719Z,9.20
2019-04-07T20:37:27.528Z,10.00
2019-04-07T20:38:46.571Z,9.93
2019-04-07T20:40:14.997Z,10.18
2019-04-07T20:41:31.902Z,10.58
2019-04-07T20:42:46.374Z,10.45
2019-04-07T20:44:07.654Z,9.50
2019-04-07T20:45:24.080Z,9.23
2019-04-07T20:46:57.040Z,10.98
2019-04-07T20:48:09.696Z,9.58
2019-04-07T20:49:34.293Z,8.98
2019-04-07T20:51:00.476Z,8.98
2019-04-07T20:52:22.299Z,9.20
2019-04-07T20:53:45.116Z,10.15
2019-04-07T20:55:08.486Z,10.53
2019-04-07T20:56:22.885Z,9.50
2019-04-07T20:58:13.208Z,10.20
2019-04-07T20:59:28.884Z,9.53
2019-04-07T21:00:52.257Z,9.73
2019-04-07T21:02:07.515Z,11.22
2019-04-07T21:03:28.887Z,9.73
2019-04-07T21:04:53.138Z,9.20
2019-04-07T21:06:08.495Z,10.98
2019-04-07T21:07:31.969Z,9.25
2019-04-07T21:08:45.529Z,8.50
2019-04-07T21:09:55.529Z,9.43
2019-04-07T21:11:09.133Z,9.78
2019-04-07T21:12:21.834Z,9.03
2019-04-07T21:13:50.835Z,12.00
2019-04-07T21:15:25.310Z,9.28
2019-04-07T21:16:33.032Z,9.45
2019-04-07T21:18:02.122Z,10.65
2019-04-07T21:19:36.502Z,10.30
2019-04-07T21:21:12.178Z,9.40
2019-04-07T21:22:45.194Z,9.70
2019-04-07T21:24:08.552Z,9.45
2019-04-07T21:25:26.389Z,9.23
2019-04-07T21:26:36.089Z,10.35
2019-04-07T21:27:49.016Z,10.00
2019-04-07T21:29:19.311Z,9.80
2019-04-07T21:30:33.549Z,10.35
2019-04-07T21:31:57.246Z,9.25
2019-04-07T21:33:25.381Z,10.93
2019-04-07T21:35:00.498Z,9.20
2019-04-07T21:36:22.158Z,11.90
2019-04-07T21:37:51.942Z,10.53
2019-04-07T21:39:31.831Z,9.80
2019-04-07T21:41:08.203Z,9.30
2019-04-07T21:42:36.031Z,9.58
2019-04-07T21:43:58.210Z,10.13
2019-04-07T21:45:35.389Z,11.43
2019-04-07T21:47:07.020Z,9.65
2019-04-07T21:48:30.691Z,8.90
2019-04-07T21:49:55.681Z,8.80
2019-04-07T21:51:21.826Z,8.83
2019-04-07T21:52:45.084Z,9.23
2019-04-07T21:54:12.005Z,9.35
2019-04-07T21:55:42.106Z,12.60
2019-04-07T21:57:17.635Z,9.60
2019-04-07T21:58:54.011Z,13.30
2019-04-07T22:00:02.966Z,10.13
2019-04-07T22:01:30.370Z,9.08
2019-04-07T22:02:59.782Z,9.98
2019-04-07T22:04:28.570Z,9.98
2019-04-07T22:05:43.641Z,9.33
2019-04-07T22:06:58.739Z,10.13
2019-04-07T22:08:13.094Z,10.10
2019-04-07T22:09:18.376Z,9.93
2019-04-07T22:10:24.246Z,11.10
2019-04-07T22:11:30.262Z,12.37
2019-04-07T22:12:34.467Z,10.13
2019-04-07T22:13:38.717Z,9.93
2019-04-07T22:14:44.254Z,10.08
2019-04-07T22:15:55.588Z,10.15
2019-04-07T22:16:54.879Z,10.85
2019-04-07T22:17:59.064Z,9.88
2019-04-07T22:19:04.194Z,10.18
2019-04-07T22:20:09.075Z,10.68
2019-04-07T22:21:13.796Z,10.23
2019-04-07T22:22:18.510Z,11.08
2019-04-07T22:23:22.995Z,10.75
2019-04-07T22:24:31.312Z,10.40
2019-04-07T22:25:36.224Z,10.55
2019-04-07T22:26:41.050Z,10.20
2019-04-07T22:27:46.233Z,10.95
2019-04-07T22:28:50.569Z,10.48
2019-04-07T22:29:54.824Z,10.53
2019-04-07T22:30:59.365Z,13.90
2019-04-07T22:32:03.709Z,10.45
2019-04-07T22:33:08.169Z,12.70
2019-04-07T22:34:14.871Z,10.88
2019-04-07T22:35:19.445Z,10.55
2019-04-07T22:36:23.640Z,9.83
2019-04-07T22:37:28.198Z,10.90
2019-04-07T22:38:33.556Z,10.88
2019-04-07T22:39:37.976Z,10.35
2019-04-07T22:40:42.139Z,10.13
2019-04-07T22:41:46.448Z,9.90
2019-04-07T22:42:50.675Z,11.18
2019-04-07T22:43:55.349Z,9.60
2019-04-07T22:44:59.954Z,10.58
2019-04-07T22:46:14.734Z,10.63
2019-04-07T22:47:13.079Z,10.78
2019-04-07T22:48:16.468Z,12.35
2019-04-07T22:49:20.786Z,10.00
2019-04-07T22:50:25.306Z,10.65
2019-04-07T22:51:30.640Z,10.95
2019-04-07T22:52:34.944Z,10.63
2019-04-07T22:53:39.115Z,11.63
2019-04-07T22:54:44.220Z,11.03
2019-04-07T22:55:48.664Z,13.48
2019-04-07T22:56:52.887Z,10.43
2019-04-07T22:57:57.852Z,10.38
2019-04-07T22:59:02.257Z,10.95
2019-04-07T23:00:10.801Z,11.03
2019-04-07T23:01:15.072Z,10.40
2019-04-07T23:02:20.018Z,10.55
2019-04-07T23:03:24.311Z,11.75
2019-04-07T23:04:28.462Z,11.83
2019-04-07T23:05:32.643Z,10.90
2019-04-07T23:06:36.947Z,11.43
2019-04-07T23:07:41.158Z,12.18
2019-04-07T23:08:45.380Z,12.13
2019-04-07T23:09:49.697Z,11.28
2019-04-07T23:10:54.047Z,10.58
2019-04-07T23:12:00.470Z,11.18
2019-04-07T23:13:04.294Z,10.68
2019-04-07T23:14:09.389Z,11.15
2019-04-07T23:15:15.247Z,11.68
2019-04-07T23:16:20.289Z,12.18
2019-04-07T23:17:24.703Z,12.55
2019-04-07T23:18:29.692Z,11.73
2019-04-07T23:19:34.432Z,11.90
2019-04-07T23:20:39.629Z,10.65
2019-04-07T23:21:44.040Z,13.38
2019-04-07T23:22:48.266Z,11.25
2019-04-07T23:23:52.462Z,11.83
2019-04-07T23:24:56.684Z,12.10
2019-04-07T23:26:01.903Z,11.30
2019-04-07T23:27:06.312Z,12.88
2019-04-07T23:28:10.649Z,11.85
2019-04-07T23:29:14.824Z,12.45
2019-04-07T23:30:23.615Z,12.88
2019-04-07T23:31:29.939Z,11.70
2019-04-07T23:32:34.287Z,11.80
2019-04-07T23:33:38.538Z,11.95
2019-04-07T23:34:43.458Z,12.30
2019-04-07T23:35:47.911Z,12.03
2019-04-07T23:36:52.137Z,12.37
2019-04-07T23:37:57.329Z,11.38
2019-04-07T23:39:01.714Z,12.10
2019-04-07T23:40:07.188Z,11.88
2019-04-07T23:41:11.700Z,12.85
2019-04-07T23:42:16.089Z,11.88
2019-04-07T23:43:20.242Z,12.68
2019-04-07T23:44:24.432Z,12.37
2019-04-07T23:45:28.589Z,12.25
2019-04-07T23:46:33.740Z,12.93
2019-04-07T23:47:38.627Z,11.38
2019-04-07T23:48:43.055Z,15.18
2019-04-07T23:49:47.207Z,13.15
2019-04-07T23:50:51.979Z,14.58
2019-04-07T23:51:56.252Z,11.63
2019-04-07T23:53:21.657Z,14.43
2019-04-07T23:54:26.817Z,14.93
2019-04-07T23:55:31.643Z,11.57
2019-04-07T23:56:36.289Z,15.78
2019-04-07T23:57:40.508Z,11.57
2019-04-07T23:58:45.556Z,12.63
2019-04-07T23:59:50.660Z,12.73
